Championnat Languedoc - Roussillon > Results

5 April 2015 @ la viére Saint-Thibéry (34)
Motocross • Moto Club de Saint Thibery • LIGUE OCCITANIE

181 participants

 

Results

  1. 125cc Scratch Manche 1
  2. Veteran Ligue Manche 1
  3. 125cc Ligue Manche 1
  4. 125cc Ligue Manche 2
  5. 125cc Scratch Manche 2
  6. Veteran Ligue Manche 2
  7. MX1 Scratch Manche 1
  8. MX1 Ligue Manche 1
  9. MX1 Scratch Manche 2
  10. MX1 Ligue Manche 2
  11. MX2 Scratch Manche 1
  12. MX2 Ligue Manche 1
  13. MX2 Scratch Manche 2
  14. MX2 Ligue Manche 2

125cc Scratch Manche 1

Place Number Participant Rg/sc Club Tr Temps Moy/Ec Meill. Tour
1 708 SALINGUE Nicolas Junior HL 1 MC Pertuis Durance Lubéron 11 50:10.887 11 Trs 01:57.980
2 132 VANDELEENE Romain Senior 1 Moto Club de Saint Thibery 11 50:16.014 00:05.127 01:58.268
3 325 MONZO Melvin Junior 1 Moto Club Aspiranais 11 50:16.715 00:05.828 01:59.579
4 291 SERIEYS Anthony Junior 2 Moto Club Aspiranais 11 50:38.143 00:27.256 02:00.704
5 126 LEOPOLD Dylan Junior 3 Villeneuve Moto Loisirs 11 50:51.845 00:40.958 01:59.151
5 223 PIQUET Axel Junior 3 Moto Club Catalan 11 51:31.919 01:21.032 02:04.341
7 78 NUGON Bastien Junior HL 2 Moto Club Ruthinois 11 51:35.537 01:24.650 02:05.489
8 800 VERLAGUET Brice Junior 5 Moto club Sommierois 11 51:47.877 01:36.990 02:04.853
9 131 CALAS Enzo Junior 6 Moto Club Le Boulou 11 51:51.426 01:40.539 02:06.584
10 337 BEILLARD Calvin Junior 7 Cevennes Off Road 11 52:05.407 01:54.520 02:07.083
11 232 ANDREO Nicolas Junior 8 Alès Pôle Espoir 11 52:07.708 01:56.821 02:09.596
12 333 MORTIER Maxime Junior HL 3 Moto Club du Lauragais 11 52:13.113 02:02.226 02:07.482
13 728 CIOTTA Paolo Junior HL 4 Moto Club Pertuis Durance Lubéron 11 52:16.659 02:05.772 02:07.990
14 977 PERPINAN Theo Junior 9 Moto Club Aspiranais 11 52:20.989 02:10.102 02:07.573
15 206 MARAVAL Clement Senior HL 1 Moto Club du Montalet 11 52:23.054 02:12.167 02:09.289
16 226 BONMARCHAND Antoine Junior 10 AS SP Moto Corbere les Cabanes 10 50:40.136 10 Trs 02:12.931
17 58 ARLAUD Thierry Senior 2 Villeneuve Moto Loisirs 10 50:51.691 00:11.555 02:12.717
18 811 VERLAGUET Geoffrey Junior 11 Moto club Sommierois 10 50:59.994 00:19.858 02:08.055
19 59 NEFFLA Sofiane Junior 12 Moto Club D'Alairac en Malepere 10 51:13.519 00:33.383 02:15.418
20 321 RENAUX Chams Junior HL 5 MC Chateauneuf les Martigues 10 51:16.660 00:36.524 02:14.119
21 97 CABROL Gaetan Junior 13 Moto Club Aspiranais 10 52:03.442 01:23.306 02:18.238
22 228 FLENET Tom Junior 14 Moto Club Aspiranais 10 52:25.656 01:45.520 02:21.237
23 234 JIMENEZ Jorge Junior 15 Moto club Sommierois 9 50:56.959 00:29.121 02:29.086
24 26 FONSECA Daniel Senior 3 Moto Club D'Alairac en Malepere 9 51:19.259 00:51.421 02:31.665
25 734 RIBE Andre Junior 16 Moto Club Aspiranais 9 51:22.383 00:54.545 02:31.012
26 4 ITIER Camille Féminine 1 Moto Club Aspiranais 9 51:23.523 00:55.685 02:29.255
27 359 COUDRE Loick Senior 4 Moto Club de Saint Thibery 8 50:48.903 00:26.664 02:38.370
28 104 CALVET Laura Féminine 2 Moto Club de Saint Thibery 8 52:02.714 01:40.475 02:42.353
29 172 GREGORI GARRIDO ENZO Enzo Junior HL 6 MC Chateauneuf les Martigues 7 42:52.497 7 Trs 02:03.006
30 184 MEFFRE Ludovic Senior 5 Moto Club de Saint Thibery 7 51:53.068 09:00.571 03:02.845
31 655 TARRIUS Julien Junior 17 Moto Club Saint Thibery 7 53:05.320 10:12.823 02:22.924
32 11 KASAZIAN Kevin Senior 6 Moto Club Aspiranais 5 42:00.498 5 Trs 02:18.479

- DNF : Do Not Finish (non arrivé)
- DNS : Do Not Start (non parti)